sensor_id;sensor_type;location;lat;lon;timestamp;pressure;altitude;pressure_sealevel;temperature
77385;BMP280;66444;49.680;18.538;2023-04-24T00:00:23;96619.50442791746;;;17.40010363017209
77385;BMP280;66444;49.680;18.538;2023-04-24T00:05:33;96615.99992592703;;;17.430579247884452
77385;BMP280;66444;49.680;18.538;2023-04-24T00:10:36;96607.93446382564;;;17.430579247884452
77385;BMP280;66444;49.680;18.538;2023-04-24T00:15:40;96604.07747780262;;;17.44073774055578
77385;BMP280;66444;49.680;18.538;2023-04-24T00:20:43;96588.64787703315;;;17.481371478410438
77385;BMP280;66444;49.680;18.538;2023-04-24T00:25:47;96596.71394751548;;;17.481371478410438
77385;BMP280;66444;49.680;18.538;2023-04-24T00:30:50;96583.27050918706;;;17.481371478410438
77385;BMP280;66444;49.680;18.538;2023-04-24T00:35:53;96583.38728840323;;;17.410262192692606
77385;BMP280;66444;49.680;18.538;2023-04-24T00:40:56;96575.84616522683;;;17.32391366912052
77385;BMP280;66444;49.680;18.538;2023-04-24T00:46:00;96564.61530475921;;;17.141052419133484
77385;BMP280;66444;49.680;18.538;2023-04-24T00:51:03;96561.8420651832;;;16.94294421877712
77385;BMP280;66444;49.680;18.538;2023-04-24T00:56:12;96544.51117222822;;;16.719426902476698
77385;BMP280;66444;49.680;18.538;2023-04-24T01:01:16;96547.74608461188;;;16.5975036165677
77385;BMP280;66444;49.680;18.538;2023-04-24T01:06:22;96546.93807102309;;;16.62798475236632
77385;BMP280;66444;49.680;18.538;2023-04-24T01:11:26;96545.88029807409;;;16.836266905348747
77385;BMP280;66444;49.680;18.538;2023-04-24T01:16:29;96542.57778690658;;;16.993742037238555
77385;BMP280;66444;49.680;18.538;2023-04-24T01:21:33;96532.75245416662;;;16.89214581823908
77385;BMP280;66444;49.680;18.538;2023-04-24T01:26:39;96529.91926395494;;;16.72958702496253
77385;BMP280;66444;49.680;18.538;2023-04-24T01:31:43;96525.8605982493;;;16.881986068282277
77385;BMP280;66444;49.680;18.538;2023-04-24T01:36:47;96517.58402971062;;;17.02422044891864
77385;BMP280;66444;49.680;18.538;2023-04-24T01:41:51;96524.77268876467;;;17.090256288694217
77385;BMP280;66444;49.680;18.538;2023-04-24T01:46:54;96508.59365030561;;;17.12581364111975
77385;BMP280;66444;49.680;18.538;2023-04-24T01:51:58;96514.66952695133;;;17.16645026607439
77385;BMP280;66444;49.680;18.538;2023-04-24T01:57:02;96506.66604017417;;;17.13089323961176
77385;BMP280;66444;49.680;18.538;2023-04-24T02:02:05;96513.26544015568;;;17.08517664363608
77385;BMP280;66444;49.680;18.538;2023-04-24T02:07:09;96506.70564111903;;;16.86166649851948
77385;BMP280;66444;49.680;18.538;2023-04-24T02:12:12;96509.69022692648;;;16.917545091267677
77385;BMP280;66444;49.680;18.538;2023-04-24T02:17:16;96504.23141907458;;;16.719426902476698
77385;BMP280;66444;49.680;18.538;2023-04-24T02:22:20;96514.10590669038;;;16.516219563316554
77385;BMP280;66444;49.680;18.538;2023-04-24T02:27:23;96513.44088526141;;;16.135180700337514
77385;BMP280;66444;49.680;18.538;2023-04-24T02:32:27;96507.75855843636;;;16.079292247211562
77385;BMP280;66444;49.680;18.538;2023-04-24T02:37:30;96507.67373995384;;;16.150422883499413
77385;BMP280;66444;49.680;18.538;2023-04-24T02:42:33;96481.28065296913;;;16.404451557016
77385;BMP280;66444;49.680;18.538;2023-04-24T02:47:37;96505.79244606587;;;16.42477322225459
77385;BMP280;66444;49.680;18.538;2023-04-24T02:52:40;96504.50129861894;;;16.23679426521994
77385;BMP280;66444;49.680;18.538;2023-04-24T02:57:44;96516.20703767835;;;16.064049819577484
77385;BMP280;66444;49.680;18.538;2023-04-24T03:02:53;96487.37353542735;;;16.140261433878912
77385;BMP280;66444;49.680;18.538;2023-04-24T03:07:56;96490.8601259993;;;16.109776945319027
77385;BMP280;66444;49.680;18.538;2023-04-24T03:13:00;96492.63111023535;;;15.906541666481644
77385;BMP280;66444;49.680;18.538;2023-04-24T03:18:03;96504.23485208348;;;15.804920534603298
77385;BMP280;66444;49.680;18.538;2023-04-24T03:23:07;96498.22361013498;;;15.693134600343182
77385;BMP280;66444;49.680;18.538;2023-04-24T03:28:10;96495.14401629375;;;15.708378302725032
77385;BMP280;66444;49.680;18.538;2023-04-24T03:33:14;96490.50531517268;;;15.749027919629588
77385;BMP280;66444;49.680;18.538;2023-04-24T03:38:17;96465.53590207998;;;15.815082752564923
77385;BMP280;66444;49.680;18.538;2023-04-24T03:43:26;96473.77540985306;;;15.977675073454156
77385;BMP280;66444;49.680;18.538;2023-04-24T03:48:30;96476.37213595348;;;16.048807339556515
77385;BMP280;66444;49.680;18.538;2023-04-24T03:53:33;96476.28463418191;;;16.11993846478872
77385;BMP280;66444;49.680;18.538;2023-04-24T03:58:37;96481.56091505676;;;16.19106844915077
77385;BMP280;66444;49.680;18.538;2023-04-24T04:03:39;96455.4911111221;;;16.196149118663744
77385;BMP280;66444;49.680;18.538;2023-04-24T04:08:42;96466.17674595346;;;16.2317136422731
77385;BMP280;66444;49.680;18.538;2023-04-24T04:13:44;96474.58307076755;;;16.252036099135875
77385;BMP280;66444;49.680;18.538;2023-04-24T04:18:47;96473.77641548392;;;16.28251960980706
77385;BMP280;66444;49.680;18.538;2023-04-24T04:23:50;96467.95828280026;;;16.333324995264412
77385;BMP280;66444;49.680;18.538;2023-04-24T04:28:53;96466.74588926094;;;16.379049344500526
77385;BMP280;66444;49.680;18.538;2023-04-24T04:33:56;96466.98304714884;;;16.20122978235595
77385;BMP280;66444;49.680;18.538;2023-04-24T04:38:58;96465.81365588651;;;15.906541666481644
77385;BMP280;66444;49.680;18.538;2023-04-24T04:44:01;96455.84691330793;;;15.911622661957518
77385;BMP280;66444;49.680;18.538;2023-04-24T04:49:04;96487.94606238864;;;15.982755987439305
77385;BMP280;66444;49.680;18.538;2023-04-24T04:54:06;96476.37213595348;;;16.048807339556515
77385;BMP280;66444;49.680;18.538;2023-04-24T04:59:09;96474.21836196784;;;15.92686561346054
77385;BMP280;66444;49.680;18.538;2023-04-24T05:04:11;96479.26295535291;;;15.87097453516908
77385;BMP280;66444;49.680;18.538;2023-04-24T05:09:14;96491.0289780346;;;15.967513228021563
77385;BMP280;66444;49.680;18.538;2023-04-24T05:14:17;96478.69582786124;;;16.028483951371165
77385;BMP280;66444;49.680;18.538;2023-04-24T05:19:20;96474.17661702765;;;15.962432296574116
77385;BMP280;66444;49.680;18.538;2023-04-24T05:24:23;96468.41131643117;;;15.977675073454156
77385;BMP280;66444;49.680;18.538;2023-04-24T05:29:26;96470.20349641166;;;16.079292247211562
77385;BMP280;66444;49.680;18.538;2023-04-24T05:34:29;96450.33731976333;;;16.32316396473907
77385;BMP280;66444;49.680;18.538;2023-04-24T05:39:31;96455.54397656387;;;16.69910658765584
77385;BMP280;66444;49.680;18.538;2023-04-24T05:44:34;96457.42793674664;;;16.963263416010886
77385;BMP280;66444;49.680;18.538;2023-04-24T05:49:36;96453.3347584999;;;17.115654426673427
77385;BMP280;66444;49.680;18.538;2023-04-24T05:54:39;96445.93697237628;;;17.389945044368506
77385;BMP280;66444;49.680;18.538;2023-04-24T05:59:42;96446.56365466291;;;17.466133870370687
77385;BMP280;66444;49.680;18.538;2023-04-24T06:04:44;96442.36234642618;;;17.654060708265753
77385;BMP280;66444;49.680;18.538;2023-04-24T06:09:47;96439.65981335806;;;17.852137127239256
77385;BMP280;66444;49.680;18.538;2023-04-24T06:14:50;96439.36398807834;;;17.994340378418563
77385;BMP280;66444;49.680;18.538;2023-04-24T06:19:53;96442.61938982747;;;17.908003234444188
77385;BMP280;66444;49.680;18.538;2023-04-24T06:24:56;96434.20605770344;;;17.88768836786039
77385;BMP280;66444;49.680;18.538;2023-04-24T06:29:58;96450.20127739446;;;17.958789993450047
77385;BMP280;66444;49.680;18.538;2023-04-24T06:35:01;96443.98743073696;;;17.98926176945679
77385;BMP280;66444;49.680;18.538;2023-04-24T06:40:10;96432.76256270138;;;18.202558334171773
77385;BMP280;66444;49.680;18.538;2023-04-24T06:45:13;96429.49337406448;;;18.288889738870786
77385;BMP280;66444;49.680;18.538;2023-04-24T06:50:16;96437.98819297731;;;18.273654907336457
77385;BMP280;66444;49.680;18.538;2023-04-24T06:55:19;96431.58648266453;;;18.212715057330207
77385;BMP280;66444;49.680;18.538;2023-04-24T07:00:21;96433.07265976445;;;18.06036176523194
77385;BMP280;66444;49.680;18.538;2023-04-24T07:05:24;96430.87484864153;;;18.009576170379297
77385;BMP280;66444;49.680;18.538;2023-04-24T07:10:28;96423.90101807348;;;18.034969040565194
77385;BMP280;66444;49.680;18.538;2023-04-24T07:15:31;96428.52495448334;;;18.029890478169545
77385;BMP280;66444;49.680;18.538;2023-04-24T07:20:34;96421.31708460535;;;18.161931208707394
77385;BMP280;66444;49.680;18.538;2023-04-24T07:25:37;96436.15083418996;;;18.405688373558224
77385;BMP280;66444;49.680;18.538;2023-04-24T07:30:39;96439.35433462312;;;18.5174059254583
77385;BMP280;66444;49.680;18.538;2023-04-24T07:35:42;96438.68148659449;;;18.639276405377313
77385;BMP280;66444;49.680;18.538;2023-04-24T07:40:45;96425.88489867368;;;18.67989915362559
77385;BMP280;66444;49.680;18.538;2023-04-24T07:45:49;96436.15202468423;;;18.730677065066992
77385;BMP280;66444;49.680;18.538;2023-04-24T07:50:52;96443.73215944035;;;18.61896489155479
77385;BMP280;66444;49.680;18.538;2023-04-24T07:55:55;96436.6612854076;;;18.5174059254583
77385;BMP280;66444;49.680;18.538;2023-04-24T08:00:58;96438.34188454396;;;18.456469428213314
77385;BMP280;66444;49.680;18.538;2023-04-24T08:06:01;96444.9048664799;;;18.446313263848424
77385;BMP280;66444;49.680;18.538;2023-04-24T08:11:04;96444.72841823786;;;18.354906736826525
77385;BMP280;66444;49.680;18.538;2023-04-24T08:16:07;96441.17738787101;;;18.222871757205574
77385;BMP280;66444;49.680;18.538;2023-04-24T08:21:10;96448.23209501272;;;18.161931208707394
77385;BMP280;66444;49.680;18.538;2023-04-24T08:26:18;96442.54557085842;;;17.94355402686633
77385;BMP280;66444;49.680;18.538;2023-04-24T08:31:21;96454.35571645219;;;17.80642797020264
77385;BMP280;66444;49.680;18.538;2023-04-24T08:36:29;96451.73693939202;;;17.770876077655704
77385;BMP280;66444;49.680;18.538;2023-04-24T08:41:33;96442.90918031338;;;17.765797212580217
77385;BMP280;66444;49.680;18.538;2023-04-24T08:46:38;96449.1179253757;;;17.735323899891227
77385;BMP280;66444;49.680;18.538;2023-04-24T08:51:42;96453.6683484263;;;17.765797212580217
77385;BMP280;66444;49.680;18.538;2023-04-24T08:56:45;96453.11957037696;;;17.654060708265753
77385;BMP280;66444;49.680;18.538;2023-04-24T09:01:51;96452.76532164197;;;17.435658497130497
77385;BMP280;66444;49.680;18.538;2023-04-24T09:06:55;96456.24786493587;;;17.2070865185
77385;BMP280;66444;49.680;18.538;2023-04-24T09:11:59;96457.06862305109;;;17.17660936410539
77385;BMP280;66444;49.680;18.538;2023-04-24T09:17:03;96452.63624168652;;;17.0750173360575
77385;BMP280;66444;49.680;18.538;2023-04-24T09:22:06;96444.92493759628;;;17.095335927931593
77385;BMP280;66444;49.680;18.538;2023-04-24T09:27:10;96449.22965131543;;;17.268040198646485
77385;BMP280;66444;49.680;18.538;2023-04-24T09:32:21;96437.52606665605;;;17.369627802912145
77385;BMP280;66444;49.680;18.538;2023-04-24T09:37:27;96435.18436528796;;;17.389945044368506
77385;BMP280;66444;49.680;18.538;2023-04-24T09:42:31;96438.47915042905;;;17.268040198646485
77385;BMP280;66444;49.680;18.538;2023-04-24T09:47:35;96430.82780937447;;;17.252801857190207
77385;BMP280;66444;49.680;18.538;2023-04-24T09:52:40;96437.08840652261;;;17.186768438853324
77385;BMP280;66444;49.680;18.538;2023-04-24T09:57:48;96443.75595494185;;;17.10549518894404
77385;BMP280;66444;49.680;18.538;2023-04-24T10:02:54;96447.01613401048;;;17.21724552339874
77385;BMP280;66444;49.680;18.538;2023-04-24T10:08:00;96446.09383826227;;;17.08517664363608
77385;BMP280;66444;49.680;18.538;2023-04-24T10:13:04;96451.3544102924;;;16.922624928411096
77385;BMP280;66444;49.680;18.538;2023-04-24T10:18:10;96455.37855703324;;;16.80578720145859
77385;BMP280;66444;49.680;18.538;2023-04-24T10:23:13;96445.61737617104;;;16.668625940801576
77385;BMP280;66444;49.680;18.538;2023-04-24T10:28:17;96449.4685913649;;;16.658465678617357
77385;BMP280;66444;49.680;18.538;2023-04-24T10:33:21;96445.72513775805;;;16.5975036165677
77385;BMP280;66444;49.680;18.538;2023-04-24T10:38:26;96452.87220129231;;;16.42985362401232
77385;BMP280;66444;49.680;18.538;2023-04-24T10:43:32;96451.30231296418;;;16.45525554548949
77385;BMP280;66444;49.680;18.538;2023-04-24T10:48:36;96452.92229548871;;;16.394290689472108
77385;BMP280;66444;49.680;18.538;2023-04-24T10:53:45;96449.88353416929;;;16.373968884535135
77385;BMP280;66444;49.680;18.538;2023-04-24T10:58:49;96456.15654972922;;;16.272358462866396
77385;BMP280;66444;49.680;18.538;2023-04-24T11:03:55;96456.96392384039;;;16.241874882346018
77385;BMP280;66444;49.680;18.538;2023-04-24T11:09:03;96465.10599212148;;;16.17074571289122
77385;BMP280;66444;49.680;18.538;2023-04-24T11:14:07;96464.70307296934;;;16.185987773817033
77385;BMP280;66444;49.680;18.538;2023-04-24T11:19:18;96472.70614211533;;;16.221552378917114
77385;BMP280;66444;49.680;18.538;2023-04-24T11:24:24;96473.86916133434;;;16.211391092278063
77385;BMP280;66444;49.680;18.538;2023-04-24T11:29:38;96483.9305685901;;;16.135180700337514
77385;BMP280;66444;49.680;18.538;2023-04-24T11:34:45;96490.18529200612;;;16.03356480714865
77385;BMP280;66444;49.680;18.538;2023-04-24T11:39:50;96490.94564067456;;;16.03864565710537
77385;BMP280;66444;49.680;18.538;2023-04-24T11:44:54;96494.07065884511;;;15.987836895603687
77385;BMP280;66444;49.680;18.538;2023-04-24T11:49:58;96478.94261183875;;;15.815082752564923
77385;BMP280;66444;49.680;18.538;2023-04-24T11:55:02;96488.29783894515;;;15.6626470384188
77385;BMP280;66444;49.680;18.538;2023-04-24T12:00:06;96485.32706205796;;;15.571183095360174
77385;BMP280;66444;49.680;18.538;2023-04-24T12:05:18;96482.35360341302;;;15.479717266373337
77385;BMP280;66444;49.680;18.538;2023-04-24T12:10:23;96480.83200887663;;;15.469554280070588
77385;BMP280;66444;49.680;18.538;2023-04-24T12:15:27;96476.26726654501;;;15.439065181463956
77385;BMP280;66444;49.680;18.538;2023-04-24T12:20:31;96470.90784427046;;;15.439065181463956
77385;BMP280;66444;49.680;18.538;2023-04-24T12:25:35;96469.31693750162;;;15.50004316912964
77385;BMP280;66444;49.680;18.538;2023-04-24T12:30:40;96471.4904319142;;;15.621996629890054
77385;BMP280;66444;49.680;18.538;2023-04-24T12:35:44;96467.57467497868;;;15.703297074418515
77385;BMP280;66444;49.680;18.538;2023-04-24T12:41:00;96465.25466578754;;;15.723621952719986
77385;BMP280;66444;49.680;18.538;2023-04-24T12:46:04;96464.53282959499;;;15.682972102984786
77385;BMP280;66444;49.680;18.538;2023-04-24T12:51:07;96464.68175125615;;;15.540694695245474
77385;BMP280;66444;49.680;18.538;2023-04-24T12:56:10;96460.98429769711;;;15.408575873309747
77385;BMP280;66444;49.680;18.538;2023-04-24T13:01:14;96463.4318100725;;;15.24596269079484
77385;BMP280;66444;49.680;18.538;2023-04-24T13:06:17;96459.65884626766;;;15.184981210669502
77385;BMP280;66444;49.680;18.538;2023-04-24T13:11:20;96449.37175632839;;;15.134162670280784
77385;BMP280;66444;49.680;18.538;2023-04-24T13:16:23;96446.75430611018;;;15.063015735847875
77385;BMP280;66444;49.680;18.538;2023-04-24T13:21:26;96442.55453212108;;;15.052851794939489
77385;BMP280;66444;49.680;18.538;2023-04-24T13:26:29;96442.24737379674;;;14.961375279026106
77385;BMP280;66444;49.680;18.538;2023-04-24T13:31:32;96434.6380497784;;;14.910554177500307
77385;BMP280;66444;49.680;18.538;2023-04-24T13:36:36;96433.90512050367;;;14.86989687718451
77385;BMP280;66444;49.680;18.538;2023-04-24T13:41:39;96423.9852889674;;;14.839403657475486
77385;BMP280;66444;49.680;18.538;2023-04-24T13:46:42;96417.10946335786;;;14.829239204339682
77385;BMP280;66444;49.680;18.538;2023-04-24T13:51:47;96419.02560523833;;;14.824156969040633
77385;BMP280;66444;49.680;18.538;2023-04-24T13:56:50;96415.92554498654;;;14.874979060096667
77385;BMP280;66444;49.680;18.538;2023-04-24T14:01:54;96410.96601899702;;;14.8597324938979
77385;BMP280;66444;49.680;18.538;2023-04-24T14:06:57;96414.00911192581;;;14.880061237188055
77385;BMP280;66444;49.680;18.538;2023-04-24T14:12:05;96409.38575149584;;;14.920718444371596
77385;BMP280;66444;49.680;18.538;2023-04-24T14:17:09;96413.15892648589;;;14.981703556654974
77385;BMP280;66444;49.680;18.538;2023-04-24T14:22:12;96404.66627303134;;;15.06809769757092
77385;BMP280;66444;49.680;18.538;2023-04-24T14:27:15;96404.56658067067;;;15.174817549157888
77385;BMP280;66444;49.680;18.538;2023-04-24T14:32:18;96406.01812190923;;;15.256126189325006
77385;BMP280;66444;49.680;18.538;2023-04-24T14:37:22;96403.62932321554;;;15.347596628358588
77385;BMP280;66444;49.680;18.538;2023-04-24T14:42:25;96400.5140569342;;;15.398412724025548
77385;BMP280;66444;49.680;18.538;2023-04-24T14:47:28;96409.6363382847;;;15.459391270484776
77385;BMP280;66444;49.680;18.538;2023-04-24T14:52:32;96393.43848741656;;;15.566101709892973
77385;BMP280;66444;49.680;18.538;2023-04-24T14:57:40;96394.83387242006;;;15.682972102984786
77385;BMP280;66444;49.680;18.538;2023-04-24T15:02:43;96392.958637651;;;15.957351359305903
77385;BMP280;66444;49.680;18.538;2023-04-24T15:07:52;96393.62384848837;;;16.03356480714865
77385;BMP280;66444;49.680;18.538;2023-04-24T15:12:55;96381.9881511102;;;16.135180700337514
77385;BMP280;66444;49.680;18.538;2023-04-24T15:17:58;96395.25142590515;;;16.241874882346018
77385;BMP280;66444;49.680;18.538;2023-04-24T15:23:01;96385.5799991213;;;16.302841833839192
77385;BMP280;66444;49.680;18.538;2023-04-24T15:28:05;96391.75777099625;;;16.272358462866396
77385;BMP280;66444;49.680;18.538;2023-04-24T15:33:08;96397.07283608805;;;16.307922375295313
77385;BMP280;66444;49.680;18.538;2023-04-24T15:38:11;96390.13527841063;;;16.333324995264412
77385;BMP280;66444;49.680;18.538;2023-04-24T15:43:14;96394.7949409521;;;16.292680733464657
77385;BMP280;66444;49.680;18.538;2023-04-24T15:48:18;96387.30353494588;;;16.17074571289122
77385;BMP280;66444;49.680;18.538;2023-04-24T15:53:22;96379.00037256365;;;16.079292247211562
77385;BMP280;66444;49.680;18.538;2023-04-24T15:58:25;96386.78816137371;;;15.987836895603687
77385;BMP280;66444;49.680;18.538;2023-04-24T16:03:28;96381.37612652376;;;16.02340308977291
77385;BMP280;66444;49.680;18.538;2023-04-24T16:08:31;96387.59487032227;;;15.957351359305903
77385;BMP280;66444;49.680;18.538;2023-04-24T16:13:36;96386.88193977503;;;15.916703651612625
77385;BMP280;66444;49.680;18.538;2023-04-24T16:18:39;96385.09694640907;;;15.815082752564923
77385;BMP280;66444;49.680;18.538;2023-04-24T16:23:43;96385.98896431904;;;15.713459525210784
77385;BMP280;66444;49.680;18.538;2023-04-24T16:28:46;96380.35475841531;;;15.621996629890054
77385;BMP280;66444;49.680;18.538;2023-04-24T16:33:49;96380.39672315099;;;15.586427216837183
77385;BMP280;66444;49.680;18.538;2023-04-24T16:38:53;96385.0384579081;;;15.545776109816506
77385;BMP280;66444;49.680;18.538;2023-04-24T16:43:56;96383.51863929529;;;15.535613274853677
77385;BMP280;66444;49.680;18.538;2023-04-24T16:48:59;96382.11840400302;;;15.41873899931088
77385;BMP280;66444;49.680;18.538;2023-04-24T16:54:02;96389.47296783878;;;15.342514986777678
77385;BMP280;66444;49.680;18.538;2023-04-24T16:59:06;96390.74114553415;;;15.225635623885319
77385;BMP280;66444;49.680;18.538;2023-04-24T17:04:10;96385.62189737201;;;14.976621495978907
77385;BMP280;66444;49.680;18.538;2023-04-24T17:09:13;96391.10008266402;;;14.834321433817967
77385;BMP280;66444;49.680;18.538;2023-04-24T17:14:16;96388.8762342958;;;14.74792274106294
77385;BMP280;66444;49.680;18.538;2023-04-24T17:19:19;96390.50741341784;;;14.615780310099945
77385;BMP280;66444;49.680;18.538;2023-04-24T17:24:23;96393.6277858445;;;14.529377362364903
77385;BMP280;66444;49.680;18.538;2023-04-24T17:29:26;96400.57259793732;;;14.432807371253148
77385;BMP280;66444;49.680;18.538;2023-04-24T17:34:30;96401.0304310174;;;14.310821221070364
77385;BMP280;66444;49.680;18.538;2023-04-24T17:39:33;96417.19052032409;;;14.09733739066869
77385;BMP280;66444;49.680;18.538;2023-04-24T17:44:36;96411.54889121298;;;13.899093211395666
77385;BMP280;66444;49.680;18.538;2023-04-24T17:49:40;96419.99385574002;;;13.777092392882333
77385;BMP280;66444;49.680;18.538;2023-04-24T17:54:43;96422.70922316531;;;13.634753867099061
77385;BMP280;66444;49.680;18.538;2023-04-24T17:59:46;96430.00790871654;;;13.416153674246743
77385;BMP280;66444;49.680;18.538;2023-04-24T18:04:49;96431.55869140329;;;13.212794995168224
77385;BMP280;66444;49.680;18.538;2023-04-24T18:09:58;96441.48013045202;;;13.100943751912563
77385;BMP280;66444;49.680;18.538;2023-04-24T18:15:01;96452.15699887155;;;13.029764221189543
77385;BMP280;66444;49.680;18.538;2023-04-24T18:20:07;96465.88117458862;;;12.978921000752598
77385;BMP280;66444;49.680;18.538;2023-04-24T18:25:11;96459.01115369468;;;12.897570637334137
77385;BMP280;66444;49.680;18.538;2023-04-24T18:30:15;96469.67639322198;;;12.826387846982106
77385;BMP280;66444;49.680;18.538;2023-04-24T18:35:18;96460.89123206525;;;12.714526871405543
77385;BMP280;66444;49.680;18.538;2023-04-24T18:40:22;96475.74186257066;;;12.653510606382042
77385;BMP280;66444;49.680;18.538;2023-04-24T18:45:26;96483.349381689;;;12.59757829378359
77385;BMP280;66444;49.680;18.538;2023-04-24T18:50:30;96476.48773629875;;;12.587408706732095
77385;BMP280;66444;49.680;18.538;2023-04-24T18:55:33;96484.85634627276;;;12.53656042222865
77385;BMP280;66444;49.680;18.538;2023-04-24T19:00:36;96487.92066453268;;;12.592493503168225
77385;BMP280;66444;49.680;18.538;2023-04-24T19:05:40;96479.93626258754;;;12.66368004209362
77385;BMP280;66444;49.680;18.538;2023-04-24T19:10:43;96493.25543042689;;;12.592493503168225
77385;BMP280;66444;49.680;18.538;2023-04-24T19:15:46;96488.28704944582;;;12.54164527687244
77385;BMP280;66444;49.680;18.538;2023-04-24T19:20:50;96490.17951515116;;;12.500966276740655
77385;BMP280;66444;49.680;18.538;2023-04-24T19:25:53;96484.44653332238;;;12.445032043289393
77385;BMP280;66444;49.680;18.538;2023-04-24T19:31:01;96487.47645583117;;;12.394182128971442
77385;BMP280;66444;49.680;18.538;2023-04-24T19:36:05;96481.76779540973;;;12.409437164384872
77385;BMP280;66444;49.680;18.538;2023-04-24T19:41:08;96492.43414193553;;;12.409437164384872
77385;BMP280;66444;49.680;18.538;2023-04-24T19:46:12;96494.71226644388;;;12.389097105525433
77385;BMP280;66444;49.680;18.538;2023-04-24T19:51:15;96489.3521570443;;;12.317906166100874
77385;BMP280;66444;49.680;18.538;2023-04-24T19:56:18;96495.04428777349;;;12.2670547965914
77385;BMP280;66444;49.680;18.538;2023-04-24T20:01:23;96503.00986684173;;;12.195861901389435
77385;BMP280;66444;49.680;18.538;2023-04-24T20:06:27;96499.18984055273;;;12.170435590902343
77385;BMP280;66444;49.680;18.538;2023-04-24T20:11:32;96512.1085237937;;;12.114497195603326
77385;BMP280;66444;49.680;18.538;2023-04-24T20:16:37;96512.8539815879;;;12.083985046762972
77385;BMP280;66444;49.680;18.538;2023-04-24T20:21:42;96509.7972115102;;;12.063643497787416
77385;BMP280;66444;49.680;18.538;2023-04-24T20:26:47;96511.32559281899;;;12.073814283916727
77385;BMP280;66444;49.680;18.538;2023-04-24T20:31:52;96520.06559516757;;;12.043301855679601
77385;BMP280;66444;49.680;18.538;2023-04-24T20:36:56;96520.02451886624;;;11.972105374885723
77385;BMP280;66444;49.680;18.538;2023-04-24T20:42:01;96521.92486104475;;;11.967019868316129
77385;BMP280;66444;49.680;18.538;2023-04-24T20:47:06;96514.30246450035;;;11.95176331368275
77385;BMP280;66444;49.680;18.538;2023-04-24T20:52:11;96524.21801126983;;;11.982276370562612
77385;BMP280;66444;49.680;18.538;2023-04-24T20:57:16;96522.68924258357;;;11.972105374885723
77385;BMP280;66444;49.680;18.538;2023-04-24T21:02:21;96525.35396875182;;;11.972105374885723
77385;BMP280;66444;49.680;18.538;2023-04-24T21:07:26;96521.92486104475;;;11.967019868316129
77385;BMP280;66444;49.680;18.538;2023-04-24T21:12:32;96511.24516132526;;;11.931421159347519
77385;BMP280;66444;49.680;18.538;2023-04-24T21:17:37;96521.51015516605;;;11.91107891188003
77385;BMP280;66444;49.680;18.538;2023-04-24T21:22:42;96525.70352155853;;;11.921250047255308
77385;BMP280;66444;49.680;18.538;2023-04-24T21:27:46;96527.23243467118;;;11.931421159347519
77385;BMP280;66444;49.680;18.538;2023-04-24T21:32:52;96527.62564074965;;;11.95176331368275
77385;BMP280;66444;49.680;18.538;2023-04-24T21:37:57;96531.07642405893;;;11.992447342956439
77385;BMP280;66444;49.680;18.538;2023-04-24T21:43:02;96526.53197631707;;;12.033130999701097
77385;BMP280;66444;49.680;18.538;2023-04-24T21:48:07;96523.12279000356;;;12.063643497787416
77385;BMP280;66444;49.680;18.538;2023-04-24T21:53:11;96520.47712099504;;;12.099241147376597
77385;BMP280;66444;49.680;18.538;2023-04-24T21:58:16;96522.37812670541;;;12.094155786326155